createdAt,value
2019-03-01T00:02:03.424Z,75.10
2019-03-01T00:04:37.661Z,74.89
2019-03-01T00:07:33.604Z,75.60
2019-03-01T00:10:22.914Z,75.69
2019-03-01T00:13:05.358Z,75.61
2019-03-01T00:15:43.862Z,75.20
2019-03-01T00:18:17.093Z,75.25
2019-03-01T00:21:08.155Z,75.21
2019-03-01T00:23:41.488Z,75.01
2019-03-01T00:26:17.093Z,75.05
2019-03-01T00:29:05.680Z,74.92
2019-03-01T00:31:41.472Z,74.70
2019-03-01T00:34:38.955Z,74.67
2019-03-01T00:37:19.555Z,74.65
2019-03-01T00:40:01.946Z,74.67
2019-03-01T00:42:44.844Z,74.87
2019-03-01T00:45:15.072Z,74.78
2019-03-01T00:47:44.777Z,74.39
2019-03-01T00:50:14.380Z,74.53
2019-03-01T00:52:44.600Z,74.46
2019-03-01T00:55:14.306Z,74.72
2019-03-01T00:57:44.122Z,74.41
2019-03-01T01:00:20.692Z,74.16
2019-03-01T01:02:50.384Z,74.04
2019-03-01T01:05:20.516Z,73.89
2019-03-01T01:07:50.334Z,74.07
2019-03-01T01:10:38.064Z,74.03
2019-03-01T01:13:08.275Z,73.83
2019-03-01T01:15:37.981Z,74.06
2019-03-01T01:18:07.628Z,74.00
2019-03-01T01:20:37.712Z,74.12
2019-03-01T01:23:07.518Z,73.55
2019-03-01T01:25:37.226Z,73.63
2019-03-01T01:28:07.343Z,73.84
2019-03-01T01:30:37.051Z,73.42
2019-03-01T01:33:06.763Z,72.98
2019-03-01T01:35:37.044Z,71.59
2019-03-01T01:38:06.795Z,70.75
2019-03-01T01:40:36.610Z,69.61
2019-03-01T01:43:06.721Z,69.86
2019-03-01T01:45:36.434Z,70.07
2019-03-01T01:48:06.239Z,68.46
2019-03-01T01:50:36.360Z,68.96
2019-03-01T01:53:06.070Z,69.16
2019-03-01T01:55:37.414Z,69.28
2019-03-01T01:58:07.069Z,69.49
2019-03-01T02:00:36.613Z,69.36
2019-03-01T02:03:06.951Z,69.58
2019-03-01T02:05:36.657Z,69.56
2019-03-01T02:08:06.549Z,69.89
2019-03-01T02:10:36.693Z,69.96
2019-03-01T02:13:06.400Z,69.63
2019-03-01T02:15:36.052Z,69.97
2019-03-01T02:18:06.226Z,69.96
2019-03-01T02:20:35.920Z,69.78
2019-03-01T02:23:05.538Z,69.56
2019-03-01T02:25:36.686Z,69.74
2019-03-01T02:28:06.387Z,69.67
2019-03-01T02:30:41.976Z,69.80
2019-03-01T02:33:12.154Z,69.77
2019-03-01T02:35:41.814Z,69.78
2019-03-01T02:38:11.575Z,70.01
2019-03-01T02:40:41.788Z,70.32
2019-03-01T02:43:11.504Z,70.37
2019-03-01T02:45:41.210Z,70.79
2019-03-01T02:48:11.435Z,70.85
2019-03-01T02:50:42.389Z,71.37
2019-03-01T02:53:12.528Z,71.18
2019-03-01T02:55:42.298Z,70.71
2019-03-01T02:58:12.008Z,71.09
2019-03-01T03:00:42.226Z,71.02
2019-03-01T03:03:11.901Z,70.76
2019-03-01T03:05:55.670Z,70.81
2019-03-01T03:08:25.992Z,71.45
2019-03-01T03:10:55.910Z,71.04
2019-03-01T03:13:25.613Z,70.85
2019-03-01T03:15:55.688Z,70.85
2019-03-01T03:18:25.445Z,70.73
2019-03-01T03:20:55.257Z,70.62
2019-03-01T03:23:25.400Z,70.76
2019-03-01T03:25:55.017Z,70.46
2019-03-01T03:28:24.787Z,70.24
2019-03-01T03:30:54.906Z,70.31
2019-03-01T03:33:24.536Z,70.31
2019-03-01T03:35:54.330Z,70.11
2019-03-01T03:38:24.550Z,70.29
2019-03-01T03:40:54.252Z,70.44
2019-03-01T03:43:23.958Z,70.26
2019-03-01T03:45:54.178Z,70.06
2019-03-01T03:48:23.888Z,70.57
2019-03-01T03:50:53.597Z,71.31
2019-03-01T03:53:23.764Z,72.33
2019-03-01T03:55:53.446Z,72.67
2019-03-01T03:58:23.134Z,73.81
2019-03-01T04:00:53.292Z,73.76
2019-03-01T04:03:22.942Z,74.24
2019-03-01T04:05:52.672Z,74.14
2019-03-01T04:08:24.011Z,75.37
2019-03-01T04:10:53.827Z,75.65
2019-03-01T04:13:23.637Z,75.82
2019-03-01T04:15:53.752Z,76.16
2019-03-01T04:18:23.407Z,76.10
2019-03-01T04:20:53.074Z,76.50
2019-03-01T04:23:23.303Z,76.41
2019-03-01T04:25:52.999Z,76.12
2019-03-01T04:28:22.706Z,76.42
2019-03-01T04:30:53.029Z,76.58
2019-03-01T04:33:22.676Z,76.83
2019-03-01T04:35:52.440Z,76.53
2019-03-01T04:38:23.520Z,76.35
2019-03-01T04:40:53.201Z,76.15
2019-03-01T04:43:22.889Z,76.09
2019-03-01T04:45:53.217Z,75.88
2019-03-01T04:48:22.868Z,75.59
2019-03-01T04:50:54.996Z,75.36
2019-03-01T04:53:25.109Z,75.20
2019-03-01T04:55:54.814Z,75.03
2019-03-01T04:58:24.532Z,74.87
2019-03-01T05:00:56.701Z,74.39
2019-03-01T05:03:26.351Z,74.24
2019-03-01T05:05:56.036Z,73.99
2019-03-01T05:08:26.129Z,73.60
2019-03-01T05:10:55.934Z,73.57
2019-03-01T05:13:25.582Z,73.83
2019-03-01T05:15:55.761Z,73.38
2019-03-01T05:18:25.470Z,73.27
2019-03-01T05:20:55.179Z,72.82
2019-03-01T05:23:25.302Z,72.49
2019-03-01T05:25:55.008Z,72.11
2019-03-01T05:28:24.652Z,71.50
2019-03-01T05:30:54.973Z,71.71
2019-03-01T05:33:24.914Z,71.67
2019-03-01T05:35:54.763Z,71.02
2019-03-01T05:38:24.882Z,71.02
2019-03-01T05:40:54.585Z,70.78
2019-03-01T05:43:24.295Z,70.36
2019-03-01T05:45:54.522Z,70.07
2019-03-01T05:48:24.224Z,69.65
2019-03-01T05:50:53.830Z,69.55
2019-03-01T05:56:22.847Z,69.62
2019-03-01T05:59:07.117Z,69.62
2019-03-01T06:01:38.132Z,69.37
2019-03-01T06:04:11.324Z,69.58
2019-03-01T06:07:15.944Z,69.30
2019-03-01T06:10:13.222Z,69.49
2019-03-01T06:13:00.917Z,69.97
2019-03-01T06:15:46.409Z,69.94
2019-03-01T06:18:38.857Z,70.31
2019-03-01T06:21:27.366Z,69.41
2019-03-01T06:24:03.167Z,68.63
2019-03-01T06:26:42.501Z,68.63
2019-03-01T06:29:17.963Z,68.82
2019-03-01T06:32:09.766Z,67.94
2019-03-01T06:35:03.838Z,68.17
2019-03-01T06:37:49.106Z,68.65
2019-03-01T06:40:38.609Z,68.70
2019-03-01T06:43:31.736Z,68.71
2019-03-01T06:46:13.390Z,69.23
2019-03-01T06:48:47.846Z,69.38
2019-03-01T06:51:28.341Z,69.52
2019-03-01T06:53:50.964Z,69.98
2019-03-01T06:56:20.765Z,69.71
2019-03-01T06:58:50.412Z,69.44
2019-03-01T07:01:21.300Z,69.52
2019-03-01T07:03:52.239Z,69.83
2019-03-01T07:06:23.999Z,69.39
2019-03-01T07:08:53.652Z,68.83
2019-03-01T07:11:23.310Z,68.72
2019-03-01T07:13:53.427Z,67.88
2019-03-01T07:16:23.108Z,67.78
2019-03-01T07:18:52.842Z,67.57
2019-03-01T07:21:22.943Z,67.03
2019-03-01T07:23:52.587Z,67.35
2019-03-01T07:26:22.282Z,66.92
2019-03-01T07:28:52.399Z,66.70
2019-03-01T07:31:22.307Z,65.88
2019-03-01T07:33:53.245Z,65.13
2019-03-01T07:36:23.322Z,65.49
2019-03-01T07:38:53.072Z,65.85
2019-03-01T07:41:22.784Z,65.35
2019-03-01T07:43:52.900Z,65.71
2019-03-01T07:46:22.791Z,64.10
2019-03-01T07:48:52.497Z,64.88
2019-03-01T07:51:22.567Z,64.26
2019-03-01T07:53:52.349Z,64.15
2019-03-01T07:56:22.057Z,64.15
2019-03-01T07:58:52.173Z,64.14
2019-03-01T08:01:21.884Z,64.08
2019-03-01T08:03:53.205Z,64.19
2019-03-01T08:06:24.416Z,64.42
2019-03-01T08:08:54.081Z,64.22
2019-03-01T08:11:23.794Z,64.36
2019-03-01T08:13:54.250Z,64.58
2019-03-01T08:16:25.240Z,64.10
2019-03-01T08:18:55.578Z,64.45
2019-03-01T08:21:25.288Z,64.56
2019-03-01T08:23:55.001Z,64.69
2019-03-01T08:26:25.217Z,64.23
2019-03-01T08:28:58.551Z,64.10
2019-03-01T08:31:26.378Z,64.66
2019-03-01T08:33:56.594Z,64.60
2019-03-01T08:36:26.164Z,64.23
2019-03-01T08:38:55.905Z,64.49
2019-03-01T08:41:26.293Z,63.93
2019-03-01T08:43:56.140Z,63.63
2019-03-01T08:46:26.847Z,62.79
2019-03-01T08:48:57.400Z,63.03
2019-03-01T08:51:27.630Z,63.36
2019-03-01T08:53:58.889Z,62.91
2019-03-01T08:56:28.574Z,63.36
2019-03-01T08:58:58.282Z,63.03
2019-03-01T09:01:28.609Z,62.94
2019-03-01T09:04:07.330Z,63.17
2019-03-01T09:06:37.442Z,63.22
2019-03-01T09:09:08.673Z,62.76
2019-03-01T09:11:41.691Z,62.34
2019-03-01T09:14:11.487Z,61.97
2019-03-01T09:16:41.612Z,63.20
2019-03-01T09:19:11.707Z,62.53
2019-03-01T09:21:44.739Z,62.04
2019-03-01T09:24:13.292Z,62.84
2019-03-01T09:26:42.996Z,61.45
2019-03-01T09:29:18.324Z,62.38
2019-03-01T09:31:45.695Z,62.90
2019-03-01T09:34:15.400Z,62.46
2019-03-01T09:36:46.689Z,62.23
2019-03-01T09:39:17.887Z,61.65
2019-03-01T09:41:48.317Z,60.83
2019-03-01T09:44:19.456Z,61.13
2019-03-01T09:46:49.171Z,60.85
2019-03-01T09:49:21.411Z,60.59
2019-03-01T09:51:50.935Z,60.13
2019-03-01T09:54:20.646Z,59.05
2019-03-01T09:56:50.356Z,58.94
2019-03-01T09:59:20.575Z,59.07
2019-03-01T10:01:50.230Z,58.69
2019-03-01T10:04:19.996Z,58.76
2019-03-01T10:06:50.110Z,57.86
2019-03-01T10:09:19.757Z,57.65
2019-03-01T10:11:49.431Z,58.05
2019-03-01T10:14:20.402Z,58.99
2019-03-01T10:16:52.976Z,59.00
2019-03-01T10:19:23.261Z,58.24
2019-03-01T10:21:54.003Z,58.21
2019-03-01T10:24:24.210Z,58.42
2019-03-01T10:26:53.922Z,58.67
2019-03-01T10:29:23.640Z,58.61
2019-03-01T10:31:53.749Z,58.70
2019-03-01T10:34:23.459Z,58.80
2019-03-01T10:36:53.272Z,59.07
2019-03-01T10:39:23.392Z,59.68
2019-03-01T10:41:53.095Z,60.53
2019-03-01T10:44:22.913Z,61.78
2019-03-01T10:46:53.025Z,61.89
2019-03-01T10:49:22.734Z,62.59
2019-03-01T10:51:52.551Z,63.20
2019-03-01T10:54:22.611Z,63.75
2019-03-01T10:56:52.368Z,63.52
2019-03-01T10:59:22.079Z,63.62
2019-03-01T11:01:52.296Z,63.14
2019-03-01T11:04:22.011Z,62.90
2019-03-01T11:06:51.611Z,63.26
2019-03-01T11:09:21.831Z,62.84
2019-03-01T11:11:51.542Z,62.43
2019-03-01T11:14:21.187Z,61.96
2019-03-01T11:16:51.377Z,61.37
2019-03-01T11:19:20.971Z,60.65
2019-03-01T11:21:50.627Z,59.39
2019-03-01T11:24:20.802Z,58.74
2019-03-01T11:26:50.449Z,57.57
2019-03-01T11:29:20.220Z,57.83
2019-03-01T11:31:50.342Z,57.48
2019-03-01T11:34:20.044Z,58.57
2019-03-01T11:36:49.728Z,60.01
2019-03-01T11:39:20.489Z,59.82
2019-03-01T11:41:50.128Z,60.05
2019-03-01T11:44:19.802Z,60.12
2019-03-01T11:46:50.949Z,60.20
2019-03-01T11:49:20.653Z,60.62
2019-03-01T11:51:50.869Z,60.59
2019-03-01T11:54:20.584Z,60.53
2019-03-01T11:56:50.493Z,60.41
2019-03-01T11:59:20.621Z,60.40
2019-03-01T12:01:50.264Z,60.22
2019-03-01T12:04:19.908Z,60.24
2019-03-01T12:06:50.142Z,60.49
2019-03-01T12:09:21.362Z,60.55
2019-03-01T12:11:51.520Z,59.71
2019-03-01T12:14:22.321Z,59.94
2019-03-01T12:16:53.695Z,59.82
2019-03-01T12:19:23.344Z,59.31
2019-03-01T12:21:53.212Z,59.49
2019-03-01T12:24:23.324Z,59.32
2019-03-01T12:26:53.141Z,59.39
2019-03-01T12:29:22.844Z,59.20
2019-03-01T12:31:52.982Z,58.91
2019-03-01T12:34:22.554Z,59.61
2019-03-01T12:36:52.276Z,58.97
2019-03-01T12:39:22.401Z,58.37
2019-03-01T12:41:52.103Z,58.28
2019-03-01T12:44:21.816Z,58.55
2019-03-01T12:46:51.935Z,58.56
2019-03-01T12:49:21.644Z,58.96
2019-03-01T12:51:51.356Z,59.30
2019-03-01T12:54:21.567Z,59.95
2019-03-01T12:56:51.216Z,59.98
2019-03-01T12:59:20.966Z,60.29
2019-03-01T13:01:52.332Z,60.20
2019-03-01T13:04:21.982Z,59.99
2019-03-01T13:06:51.754Z,60.52
2019-03-01T13:09:23.434Z,60.57
2019-03-01T13:11:53.525Z,60.85
2019-03-01T13:14:23.635Z,61.04
2019-03-01T13:16:53.352Z,61.47
2019-03-01T13:19:23.442Z,62.26
2019-03-01T13:21:55.071Z,62.22
2019-03-01T13:24:24.730Z,62.40
2019-03-01T13:26:54.386Z,62.41
2019-03-01T13:29:24.656Z,62.13
2019-03-01T13:31:55.900Z,62.32
2019-03-01T13:34:26.792Z,62.42
2019-03-01T13:36:56.548Z,62.17
2019-03-01T13:39:26.256Z,62.34
2019-03-01T13:41:56.473Z,62.61
2019-03-01T13:44:26.109Z,62.27
2019-03-01T13:46:55.789Z,62.21
2019-03-01T13:49:26.700Z,61.86
2019-03-01T13:51:57.472Z,62.13
2019-03-01T13:54:29.209Z,62.18
2019-03-01T13:57:00.169Z,61.95
2019-03-01T13:59:37.590Z,62.10
2019-03-01T14:02:07.560Z,62.10
2019-03-01T14:04:40.339Z,61.81
2019-03-01T14:07:09.430Z,61.88
2019-03-01T14:09:39.654Z,61.85
2019-03-01T14:12:09.307Z,61.61
2019-03-01T14:14:39.073Z,61.46
2019-03-01T14:17:09.289Z,61.63
2019-03-01T14:19:41.971Z,61.67
2019-03-01T14:22:13.833Z,61.74
2019-03-01T14:24:42.207Z,61.93
2019-03-01T14:27:12.429Z,61.94
2019-03-01T14:29:42.239Z,62.66
2019-03-01T14:32:14.852Z,63.41
2019-03-01T14:34:47.673Z,63.68
2019-03-01T14:37:18.591Z,64.44
2019-03-01T14:39:47.111Z,65.09
2019-03-01T14:42:16.744Z,64.74
2019-03-01T14:44:46.384Z,64.32
2019-03-01T14:47:16.645Z,64.41
2019-03-01T14:49:46.355Z,64.74
2019-03-01T14:52:18.279Z,64.84
2019-03-01T14:54:47.880Z,65.11
2019-03-01T14:57:20.401Z,65.71
2019-03-01T14:59:56.609Z,66.06
2019-03-01T15:02:41.214Z,66.13
2019-03-01T15:05:17.871Z,65.31
2019-03-01T15:07:52.385Z,65.23
2019-03-01T15:10:23.757Z,64.94
2019-03-01T15:12:53.931Z,64.92
2019-03-01T15:15:26.452Z,65.05
2019-03-01T15:17:57.082Z,64.97
2019-03-01T15:20:28.021Z,65.07
2019-03-01T15:22:57.934Z,65.10
2019-03-01T15:25:27.565Z,64.99
2019-03-01T15:27:57.762Z,65.26
2019-03-01T15:30:27.579Z,65.20
2019-03-01T15:32:57.274Z,65.64
2019-03-01T15:35:28.791Z,65.91
2019-03-01T15:37:59.560Z,66.18
2019-03-01T15:40:31.487Z,66.32
2019-03-01T15:43:02.122Z,65.96
2019-03-01T15:45:32.263Z,65.98
2019-03-01T15:48:03.106Z,66.57
2019-03-01T15:50:33.838Z,66.30
2019-03-01T15:53:03.545Z,66.17
2019-03-01T15:55:33.257Z,66.50
2019-03-01T15:58:03.477Z,66.60
2019-03-01T16:00:33.303Z,66.74
2019-03-01T16:03:02.993Z,66.69
2019-03-01T16:05:34.238Z,66.80
2019-03-01T16:08:08.353Z,66.37
2019-03-01T16:10:38.592Z,66.43
2019-03-01T16:13:11.903Z,66.45
2019-03-01T16:15:40.141Z,66.55
2019-03-01T16:18:09.846Z,66.87
2019-03-01T16:20:39.557Z,66.66
2019-03-01T16:23:09.849Z,67.88
2019-03-01T16:25:39.593Z,67.56
2019-03-01T16:28:09.302Z,67.65
2019-03-01T16:30:39.512Z,67.62
2019-03-01T16:33:09.234Z,67.88
2019-03-01T16:35:38.934Z,68.27
2019-03-01T16:38:09.157Z,68.60
2019-03-01T16:40:38.863Z,69.07
2019-03-01T16:43:08.567Z,69.71
2019-03-01T16:45:38.733Z,69.85
2019-03-01T16:48:08.515Z,70.10
2019-03-01T16:50:40.649Z,69.91
2019-03-01T16:53:10.166Z,70.06
2019-03-01T16:55:40.153Z,69.21
2019-03-01T16:58:11.451Z,69.02
2019-03-01T17:00:41.520Z,69.30
2019-03-01T17:03:17.871Z,69.57
2019-03-01T17:05:47.827Z,69.42
2019-03-01T17:08:17.636Z,68.68
2019-03-01T17:10:47.327Z,68.43
2019-03-01T17:13:17.516Z,68.14
2019-03-01T17:18:44.629Z,67.31
2019-03-01T17:21:16.627Z,67.15
2019-03-01T17:23:46.607Z,66.44
2019-03-01T17:26:16.833Z,66.61
2019-03-01T17:28:46.536Z,66.35
2019-03-01T17:31:17.547Z,66.48
2019-03-01T17:33:51.267Z,66.50
2019-03-01T17:36:28.666Z,66.56
2019-03-01T17:39:00.665Z,66.22
2019-03-01T17:41:31.988Z,66.21
2019-03-01T17:44:04.876Z,66.15
2019-03-01T17:46:34.712Z,66.14
2019-03-01T17:49:08.180Z,66.62
2019-03-01T17:51:37.879Z,66.09
2019-03-01T17:54:15.000Z,66.53
2019-03-01T17:56:44.788Z,66.42
2019-03-01T17:59:15.711Z,66.48
2019-03-01T18:01:45.518Z,66.28
2019-03-01T18:04:16.249Z,66.22
2019-03-01T18:06:48.711Z,66.41
2019-03-01T18:09:17.913Z,66.25
2019-03-01T18:11:48.142Z,66.20
2019-03-01T18:14:17.846Z,65.91
2019-03-01T18:16:48.581Z,65.85
2019-03-01T18:19:18.698Z,65.89
2019-03-01T18:21:50.075Z,65.69
2019-03-01T18:24:30.191Z,65.87
2019-03-01T18:27:07.565Z,65.90
2019-03-01T18:29:42.360Z,65.63
2019-03-01T18:32:12.274Z,65.59
2019-03-01T18:34:47.166Z,64.97
2019-03-01T18:37:19.695Z,64.67
2019-03-01T18:40:06.407Z,64.17
2019-03-01T18:42:43.284Z,64.41
2019-03-01T18:45:24.407Z,63.92
2019-03-01T18:47:55.605Z,63.41
2019-03-01T18:50:32.190Z,63.60
2019-03-01T18:53:03.968Z,63.42
2019-03-01T18:55:37.222Z,63.17
2019-03-01T18:58:10.448Z,62.88
2019-03-01T19:00:53.079Z,62.90
2019-03-01T19:03:36.620Z,62.90
2019-03-01T19:06:24.948Z,63.12
2019-03-01T19:09:06.674Z,64.02
2019-03-01T19:11:42.059Z,62.75
2019-03-01T19:14:14.222Z,62.97
2019-03-01T19:16:50.051Z,62.92
2019-03-01T19:19:29.797Z,63.85
2019-03-01T19:21:59.844Z,63.49
2019-03-01T19:24:42.695Z,63.63
2019-03-01T19:27:09.256Z,63.96
2019-03-01T19:29:54.216Z,63.91
2019-03-01T19:32:27.616Z,64.28
2019-03-01T19:35:04.675Z,64.21
2019-03-01T19:37:38.943Z,64.26
2019-03-01T19:40:13.898Z,63.82
2019-03-01T19:42:45.634Z,63.36
2019-03-01T19:45:21.651Z,63.46
2019-03-01T19:48:01.699Z,63.64
2019-03-01T19:50:31.746Z,63.39
2019-03-01T19:53:05.156Z,63.26
2019-03-01T19:55:39.470Z,63.00
2019-03-01T19:58:11.843Z,63.06
2019-03-01T20:00:42.565Z,62.87
2019-03-01T20:03:11.984Z,62.76
2019-03-01T20:05:46.506Z,62.72
2019-03-01T20:08:29.790Z,62.64
2019-03-01T20:11:07.936Z,62.75
2019-03-01T20:13:41.941Z,62.69
2019-03-01T20:16:35.876Z,62.51
2019-03-01T20:19:20.845Z,62.56
2019-03-01T20:21:54.048Z,62.10
2019-03-01T20:24:23.983Z,62.24
2019-03-01T20:26:56.715Z,62.23
2019-03-01T20:29:29.485Z,61.71
2019-03-01T20:32:07.341Z,61.25
2019-03-01T20:34:38.016Z,61.40
2019-03-01T20:37:15.292Z,61.43
2019-03-01T20:39:47.502Z,60.68
2019-03-01T20:42:33.859Z,60.92
2019-03-01T20:45:29.994Z,61.21
2019-03-01T20:48:06.512Z,61.44
2019-03-01T20:50:50.977Z,61.10
2019-03-01T20:53:25.446Z,61.38
2019-03-01T20:55:56.749Z,61.63
2019-03-01T20:58:44.894Z,61.38
2019-03-01T21:01:37.202Z,61.66
2019-03-01T21:04:19.294Z,61.47
2019-03-01T21:07:03.108Z,61.73
2019-03-01T21:09:37.692Z,61.48
2019-03-01T21:12:16.928Z,61.70
2019-03-01T21:17:58.678Z,62.20
2019-03-01T21:20:34.417Z,62.10
2019-03-01T21:23:11.759Z,61.81
2019-03-01T21:25:47.510Z,62.08
2019-03-01T21:28:26.494Z,61.87
2019-03-01T21:31:02.422Z,62.61
2019-03-01T21:33:39.688Z,63.09
2019-03-01T21:36:15.337Z,63.13
2019-03-01T21:38:51.637Z,63.28
2019-03-01T21:41:21.428Z,63.57
2019-03-01T21:43:51.636Z,64.03
2019-03-01T21:46:21.328Z,64.14
2019-03-01T21:48:51.030Z,64.29
2019-03-01T21:51:21.048Z,64.78
2019-03-01T21:53:50.710Z,64.65
2019-03-01T21:56:22.924Z,64.83
2019-03-01T21:58:58.968Z,64.74
2019-03-01T22:01:56.527Z,64.93
2019-03-01T22:04:28.804Z,64.60
2019-03-01T22:07:01.959Z,64.56
2019-03-01T22:09:31.428Z,64.66
2019-03-01T22:12:01.503Z,64.26
2019-03-01T22:14:32.043Z,64.67
2019-03-01T22:17:02.915Z,64.58
2019-03-01T22:19:33.659Z,65.19
2019-03-01T22:22:04.092Z,64.87
2019-03-01T22:24:34.256Z,65.36
2019-03-01T22:27:05.784Z,65.14
2019-03-01T22:29:36.342Z,65.24
2019-03-01T22:32:07.401Z,65.18
2019-03-01T22:34:38.014Z,65.25
2019-03-01T22:37:07.950Z,65.29
2019-03-01T22:39:37.631Z,66.15
2019-03-01T22:42:07.879Z,65.77
2019-03-01T22:44:37.657Z,66.33
2019-03-01T22:47:07.398Z,66.66
2019-03-01T22:49:37.846Z,66.89
2019-03-01T22:52:07.588Z,67.51
2019-03-01T22:54:37.534Z,67.81
2019-03-01T22:57:08.429Z,67.84
2019-03-01T22:59:39.309Z,67.79
2019-03-01T23:02:11.885Z,68.12
2019-03-01T23:04:46.536Z,68.24
2019-03-01T23:07:17.033Z,68.06
2019-03-01T23:09:47.583Z,68.20
2019-03-01T23:12:19.857Z,68.32
2019-03-01T23:14:49.815Z,67.67
2019-03-01T23:17:19.756Z,67.54
2019-03-01T23:19:51.661Z,67.47
2019-03-01T23:22:21.931Z,68.12
2019-03-01T23:24:53.994Z,68.09
2019-03-01T23:27:23.924Z,68.21
2019-03-01T23:29:54.436Z,68.35
2019-03-01T23:32:24.809Z,68.56
2019-03-01T23:34:54.464Z,68.61
2019-03-01T23:37:24.582Z,68.69
2019-03-01T23:39:57.143Z,68.41
2019-03-01T23:42:26.195Z,68.95
2019-03-01T23:44:55.858Z,68.75
2019-03-01T23:47:25.570Z,68.75
2019-03-01T23:49:59.136Z,68.28
2019-03-01T23:52:27.034Z,68.79
2019-03-01T23:54:57.149Z,68.50
2019-03-01T23:57:26.791Z,68.51
2019-03-01T23:59:58.720Z,68.35
